Time;durP1;ratioP1;P1;durP2;ratioP2;P2;SDS_P1;SDS_P2;PMS_P1;PMS_P2;Temp;Humidity;BMP_temperature;BMP_pressure;BME280_temperature;BME280_humidity;BME280_pressure;Samples;Min_cycle;Max_cycle;Signal;HPM_P1;HPM_P2
2022/06/22 00:00:28;;;;;;;1.37;1.27;;;;;;;14.26;63.47;98158.15;1637890;87;21049;-75
2022/06/22 00:02:55;;;;;;;1.62;1.30;;;;;;;14.25;63.56;98148.44;1637865;87;21051;-77
2022/06/22 00:05:28;;;;;;;3.40;1.27;;;;;;;14.23;63.74;98145.27;1617768;87;21164;-76
2022/06/22 00:07:58;;;;;;;3.10;1.43;;;;;;;14.20;63.95;98144.52;1595952;89;21635;-79
2022/06/22 00:10:32;;;;;;;1.52;1.27;;;;;;;14.17;64.10;98141.09;1596032;90;21603;-79
2022/06/22 00:13:00;;;;;;;2.05;1.77;;;;;;;14.14;64.32;98136.87;1594634;88;21138;-77
2022/06/22 00:15:39;;;;;;;2.80;1.40;;;;;;;14.12;64.45;98143.13;1619847;88;21115;-75
2022/06/22 00:18:27;;;;;;;3.50;1.10;;;;;;;14.09;64.57;98143.75;1619882;88;21332;-75
2022/06/22 00:20:57;;;;;;;1.10;1.10;;;;;;;14.08;64.84;98147.56;1638389;86;20999;-74
2022/06/22 00:23:40;;;;;;;1.65;1.40;;;;;;;14.07;64.95;98140.00;1597096;89;21055;-75
2022/06/22 00:26:26;;;;;;;1.57;1.27;;;;;;;14.07;65.23;98141.91;1606387;88;21104;-76
2022/06/22 00:29:11;;;;;;;2.27;1.25;;;;;;;14.04;65.34;98133.87;1616598;88;21616;-77
2022/06/22 00:31:51;;;;;;;1.87;1.52;;;;;;;14.03;65.45;98122.81;1617032;88;21335;-76
2022/06/22 00:34:22;;;;;;;1.47;1.37;;;;;;;14.03;65.55;98116.05;1639312;86;21101;-76
2022/06/22 00:37:21;;;;;;;1.27;1.17;;;;;;;14.03;65.65;98117.95;1619942;88;21054;-74
2022/06/22 00:39:51;;;;;;;1.37;1.27;;;;;;;14.03;65.74;98110.65;1619264;87;20956;-77
2022/06/22 00:42:35;;;;;;;1.02;1.00;;;;;;;14.04;65.82;98107.39;1619854;87;21153;-76
2022/06/22 00:45:07;;;;;;;1.22;1.20;;;;;;;14.04;65.91;98097.94;1618402;87;21194;-77
2022/06/22 00:47:44;;;;;;;1.20;1.10;;;;;;;14.05;66.11;98104.94;1610146;88;21201;-77
2022/06/22 00:50:24;;;;;;;3.15;1.22;;;;;;;14.04;66.04;98107.39;1612448;87;21014;-77
2022/06/22 00:53:05;;;;;;;5.33;1.07;;;;;;;14.03;66.07;98092.28;1631650;86;21068;-76
2022/06/22 00:55:36;;;;;;;2.77;1.00;;;;;;;14.01;66.21;98099.34;1632377;87;21135;-78
2022/06/22 00:58:25;;;;;;;2.08;1.50;;;;;;;14.00;66.35;98086.16;1632385;87;21137;-81
2022/06/22 01:01:03;;;;;;;1.52;1.42;;;;;;;13.98;66.40;98087.25;1592006;87;21542;-73
2022/06/22 01:03:36;;;;;;;2.47;1.20;;;;;;;13.96;66.58;98081.35;1614887;87;21162;-72
2022/06/22 01:06:42;;;;;;;3.47;1.20;;;;;;;13.96;66.71;98084.61;1630019;87;21072;-69
2022/06/22 01:09:37;;;;;;;1.40;1.17;;;;;;;13.95;66.75;98080.33;1629465;88;21128;-75
2022/06/22 01:12:28;;;;;;;1.37;1.02;;;;;;;13.94;66.99;98074.67;1630483;87;21761;-75
2022/06/22 01:15:15;;;;;;;1.10;1.00;;;;;;;13.92;67.08;98075.53;1628159;87;21068;-81
2022/06/22 01:18:17;;;;;;;1.07;0.98;;;;;;;13.89;67.27;98069.41;1630443;87;21032;-77
2022/06/22 01:21:09;;;;;;;1.15;1.05;;;;;;;13.88;67.41;98068.61;1629859;88;21054;-70
2022/06/22 01:24:00;;;;;;;2.77;1.40;;;;;;;13.86;67.57;98072.16;1629605;88;21075;-74
2022/06/22 01:27:05;;;;;;;1.32;1.22;;;;;;;13.86;67.67;98064.63;1630606;87;21475;-77
2022/06/22 01:29:32;;;;;;;2.35;1.57;;;;;;;13.88;67.91;98061.05;1629955;88;21072;-76
2022/06/22 01:32:14;;;;;;;0.95;0.95;;;;;;;13.90;67.93;98062.34;1630231;87;21028;-77
2022/06/22 01:34:47;;;;;;;2.05;1.07;;;;;;;13.92;67.95;98065.52;1630235;88;21066;-76
2022/06/22 01:37:18;;;;;;;1.02;0.95;;;;;;;13.97;67.90;98069.44;1630751;88;21558;-76
2022/06/22 01:39:44;;;;;;;1.62;1.20;;;;;;;14.00;67.78;98056.42;1630578;87;21274;-75
2022/06/22 01:42:25;;;;;;;1.20;1.10;;;;;;;14.04;67.87;98059.54;1629534;87;21015;-75
2022/06/22 01:45:06;;;;;;;3.08;1.30;;;;;;;14.09;67.65;98062.11;1629744;87;21482;-78
2022/06/22 01:47:46;;;;;;;1.20;1.10;;;;;;;14.14;67.50;98053.86;1634035;87;21612;-79
2022/06/22 01:50:33;;;;;;;2.02;1.07;;;;;;;14.15;67.41;98048.67;1629712;86;21573;-80
2022/06/22 01:53:05;;;;;;;0.90;0.90;;;;;;;14.16;67.37;98055.67;1630420;86;21053;-80
2022/06/22 01:55:54;;;;;;;1.90;1.05;;;;;;;14.17;67.44;98056.47;1627737;88;21034;-76
2022/06/22 01:58:47;;;;;;;1.42;1.25;;;;;;;14.14;67.60;98058.47;1628296;86;21064;-77
2022/06/22 02:01:36;;;;;;;1.05;0.95;;;;;;;14.08;67.90;98068.61;1631250;87;21644;-76
2022/06/22 02:04:11;;;;;;;0.95;0.95;;;;;;;14.01;68.27;98058.80;1629613;87;21088;-77
2022/06/22 02:09:59;;;;;;;6.37;1.07;;;;;;;13.89;69.01;98066.70;1628258;88;21148;-73
2022/06/22 02:12:30;;;;;;;3.92;1.07;;;;;;;13.85;69.30;98069.23;1628090;88;21444;-78
2022/06/22 02:15:27;;;;;;;1.27;1.27;;;;;;;13.82;69.54;98064.98;1629248;88;21092;-76
2022/06/22 02:17:54;;;;;;;3.22;1.30;;;;;;;13.81;69.74;98060.71;1613158;89;21043;-77
2022/06/22 02:20:29;;;;;;;2.12;1.10;;;;;;;13.81;69.88;98066.11;1610280;88;21148;-73
2022/06/22 02:23:01;;;;;;;1.35;1.10;;;;;;;13.80;70.09;98072.63;1587163;88;20996;-77
2022/06/22 02:25:28;;;;;;;1.50;1.30;;;;;;;13.81;70.26;98072.87;1628641;88;21028;-75
2022/06/22 02:27:54;;;;;;;1.30;1.20;;;;;;;13.84;70.25;98068.19;1628904;88;21088;-73
2022/06/22 02:30:21;;;;;;;2.08;1.37;;;;;;;13.84;70.25;98071.69;1604127;88;21557;-76
2022/06/22 02:32:47;;;;;;;1.12;1.00;;;;;;;13.83;70.28;98071.44;1626128;88;21453;-75
2022/06/22 02:35:14;;;;;;;1.57;1.00;;;;;;;13.82;70.38;98064.98;1630301;88;21000;-75
2022/06/22 02:37:47;;;;;;;2.10;1.20;;;;;;;13.82;70.49;98064.43;1608275;88;21051;-76
2022/06/22 02:40:21;;;;;;;4.40;0.98;;;;;;;13.82;70.57;98066.34;1630453;88;21044;-75
2022/06/22 02:45:33;;;;;;;4.65;1.07;;;;;;;13.81;70.74;98064.18;1639503;86;21182;-76
2022/06/22 02:48:28;;;;;;;1.05;0.82;;;;;;;13.83;70.84;98063.33;1631723;86;21048;-75
2022/06/22 02:51:10;;;;;;;2.83;0.80;;;;;;;13.83;70.83;98066.59;1640205;86;20952;-75
2022/06/22 02:53:38;;;;;;;0.80;0.80;;;;;;;13.83;70.81;98063.33;1639545;87;21052;-76
2022/06/22 02:56:07;;;;;;;0.90;0.90;;;;;;;13.81;70.85;98067.47;1637261;87;21228;-79
2022/06/22 02:58:36;;;;;;;0.93;0.80;;;;;;;13.76;71.02;98053.54;1637728;87;21283;-78
2022/06/22 03:01:12;;;;;;;1.30;1.15;;;;;;;13.77;71.08;98052.95;1640456;87;21075;-77
2022/06/22 03:03:55;;;;;;;1.42;1.10;;;;;;;13.79;71.09;98054.25;1639755;87;21512;-76
2022/06/22 03:06:25;;;;;;;1.32;1.00;;;;;;;13.80;71.17;98055.05;1633641;87;21094;-74
2022/06/22 03:08:52;;;;;;;2.87;1.05;;;;;;;13.74;71.24;98045.48;1640334;87;20976;-76
2022/06/22 03:11:19;;;;;;;1.05;0.98;;;;;;;13.71;71.39;98048.27;1640408;87;21153;-76
2022/06/22 03:13:53;;;;;;;1.12;1.02;;;;;;;13.70;71.59;98046.66;1640036;87;20916;-76
2022/06/22 03:16:32;;;;;;;0.90;0.90;;;;;;;13.70;71.69;98053.42;1639759;87;20948;-76
2022/06/22 03:19:04;;;;;;;3.02;1.32;;;;;;;13.71;71.79;98050.97;1626981;87;21074;-77
2022/06/22 03:21:31;;;;;;;2.70;1.30;;;;;;;13.71;71.84;98042.06;1640952;86;21024;-77
2022/06/22 03:24:15;;;;;;;1.00;1.00;;;;;;;13.72;71.94;98046.33;1640194;86;21239;-75
2022/06/22 03:26:48;;;;;;;1.05;0.88;;;;;;;13.75;71.99;98036.27;1625603;87;21579;-76
2022/06/22 03:29:26;;;;;;;1.35;0.93;;;;;;;13.82;72.05;98033.91;1639623;87;21055;-75
2022/06/22 03:32:10;;;;;;;0.93;0.93;;;;;;;13.87;72.02;98049.44;1640109;87;21042;-74
2022/06/22 03:34:48;;;;;;;0.85;0.70;;;;;;;13.92;71.86;98047.15;1614060;88;21043;-75
2022/06/22 03:37:29;;;;;;;1.27;0.90;;;;;;;13.95;71.89;98049.25;1637011;87;21102;-76
2022/06/22 03:40:00;;;;;;;0.93;0.88;;;;;;;13.93;71.94;98054.95;1617962;87;21115;-77
2022/06/22 03:42:32;;;;;;;1.22;0.90;;;;;;;13.90;72.18;98057.49;1640144;87;21589;-76
2022/06/22 03:45:06;;;;;;;1.42;1.07;;;;;;;13.88;72.39;98060.50;1639812;87;21046;-75
2022/06/22 03:47:51;;;;;;;1.47;1.12;;;;;;;13.86;72.61;98060.00;1622001;87;21065;-75
2022/06/22 03:50:29;;;;;;;5.25;1.20;;;;;;;13.84;72.82;98060.88;1620546;87;21239;-75
2022/06/22 03:53:17;;;;;;;1.22;1.12;;;;;;;13.83;73.10;98058.48;1623103;88;21447;-76
2022/06/22 03:55:47;;;;;;;0.82;0.80;;;;;;;13.80;73.39;98063.97;1629430;88;21092;-73
2022/06/22 03:58:13;;;;;;;1.72;1.17;;;;;;;13.82;73.59;98067.13;1623080;88;21555;-75
2022/06/22 04:00:41;;;;;;;1.35;1.25;;;;;;;13.85;73.66;98063.03;1618694;88;21138;-78
2022/06/22 04:03:08;;;;;;;3.15;1.10;;;;;;;13.88;73.64;98061.84;1630845;88;21176;-84
2022/06/22 04:05:46;;;;;;;0.93;0.93;;;;;;;13.90;73.72;98066.40;1630111;87;21051;-78
2022/06/22 04:08:27;;;;;;;1.80;1.25;;;;;;;13.91;73.75;98065.81;1630390;88;21009;-80
2022/06/22 04:10:58;;;;;;;1.47;1.37;;;;;;;13.90;73.99;98073.70;1630503;88;21029;-78
2022/06/22 04:13:44;;;;;;;1.10;1.00;;;;;;;13.89;74.03;98073.45;1626271;88;21135;-78
2022/06/22 04:16:18;;;;;;;3.25;1.35;;;;;;;13.87;74.10;98067.55;1613394;88;21152;-79
2022/06/22 04:19:01;;;;;;;1.12;1.02;;;;;;;13.82;74.38;98072.54;1630384;88;21565;-76
2022/06/22 04:21:38;;;;;;;0.95;0.95;;;;;;;13.83;74.57;98066.03;1630745;88;21074;-77
2022/06/22 04:24:13;;;;;;;2.35;1.30;;;;;;;13.83;74.89;98074.69;1629795;88;21052;-76
2022/06/22 04:26:47;;;;;;;2.12;1.02;;;;;;;13.85;75.08;98067.09;1630560;88;21087;-79
2022/06/22 04:29:27;;;;;;;1.77;1.37;;;;;;;13.88;75.29;98072.66;1627535;88;21800;-76
2022/06/22 04:32:05;;;;;;;1.98;1.32;;;;;;;13.89;75.52;98076.96;1628608;88;21052;-76
2022/06/22 04:34:43;;;;;;;1.42;1.12;;;;;;;13.90;75.58;98079.91;1639085;86;21091;-76
2022/06/22 04:37:31;;;;;;;2.52;1.55;;;;;;;13.86;75.88;98077.56;1629625;87;21060;-76
2022/06/22 04:40:19;;;;;;;1.72;1.50;;;;;;;13.83;76.57;98077.39;1636718;87;21058;-76
2022/06/22 04:42:46;;;;;;;3.62;1.30;;;;;;;13.76;77.96;98076.50;1628349;87;21163;-78
2022/06/22 04:45:35;;;;;;;2.70;2.35;;;;;;;13.67;79.05;98080.27;1608801;88;21061;-78
2022/06/22 04:48:07;;;;;;;2.98;1.50;;;;;;;13.60;80.20;98096.09;1629456;88;21032;-74
2022/06/22 04:50:36;;;;;;;6.25;2.17;;;;;;;13.51;81.16;98087.94;1627728;87;20957;-75
2022/06/22 04:53:02;;;;;;;3.08;2.08;;;;;;;13.48;82.35;98090.69;1623488;88;21062;-75
2022/06/22 04:55:29;;;;;;;1.50;1.40;;;;;;;13.41;83.64;98093.04;1609509;88;21575;-75
2022/06/22 04:58:01;;;;;;;1.82;1.72;;;;;;;13.28;84.77;98100.66;1627400;88;20953;-77
2022/06/22 05:00:30;;;;;;;4.50;1.82;;;;;;;13.15;85.61;98093.38;1628288;87;21037;-78
2022/06/22 05:03:07;;;;;;;1.98;1.57;;;;;;;13.05;86.75;98094.92;1618556;88;20945;-77
2022/06/22 05:05:34;;;;;;;2.30;1.82;;;;;;;12.99;87.79;98100.22;1628063;88;21025;-77
2022/06/22 05:08:29;;;;;;;3.98;1.80;;;;;;;12.94;88.51;98104.38;1627845;88;21126;-76
2022/06/22 05:11:09;;;;;;;1.80;1.70;;;;;;;12.92;89.24;98096.58;1627118;88;20965;-77
2022/06/22 05:13:45;;;;;;;1.40;1.30;;;;;;;12.94;89.89;98099.78;1628079;87;21109;-77
2022/06/22 05:16:17;;;;;;;11.10;7.90;;;;;;;12.94;90.45;98102.48;1620919;88;21031;-78
2022/06/22 05:18:45;;;;;;;3.10;2.27;;;;;;;12.93;90.75;98103.58;1623333;88;21035;-78
2022/06/22 05:21:29;;;;;;;1.80;1.70;;;;;;;12.94;91.05;98105.72;1628173;88;21091;-78
2022/06/22 05:23:56;;;;;;;;;;;;;;;12.96;91.22;98103.50;1630133;88;21079;-80
2022/06/22 05:26:23;;;;;;;3.67;1.35;;;;;;;12.99;91.40;98099.67;1628118;88;20171;-78
2022/06/22 05:29:04;;;;;;;2.17;1.90;;;;;;;13.04;91.26;98106.85;1627618;88;21028;-76
2022/06/22 05:31:38;;;;;;;1.47;1.20;;;;;;;13.07;91.06;98100.83;1625935;88;21037;-75
2022/06/22 05:34:12;;;;;;;1.92;1.30;;;;;;;13.18;91.55;98104.13;1626953;88;21149;-75
2022/06/22 05:36:43;;;;;;;3.27;2.15;;;;;;;13.20;90.77;98103.26;1628027;88;20965;-75
2022/06/22 05:39:10;;;;;;;2.30;1.82;;;;;;;13.13;90.33;98100.20;1640325;86;21090;-75
2022/06/22 05:41:41;;;;;;;3.58;1.95;;;;;;;13.08;90.94;98101.89;1632191;87;21084;-75
2022/06/22 05:44:14;;;;;;;1.60;1.50;;;;;;;13.01;91.24;98098.80;1631966;87;21108;-74
2022/06/22 05:46:41;;;;;;;1.85;1.65;;;;;;;13.05;91.86;98101.13;1631818;87;21912;-75
2022/06/22 05:49:15;;;;;;;1.85;1.60;;;;;;;13.14;91.94;98100.45;1631942;87;21016;-75
2022/06/22 05:52:07;;;;;;;2.87;1.77;;;;;;;13.25;92.26;98099.09;1630759;87;21072;-75
2022/06/22 05:54:44;;;;;;;2.85;1.98;;;;;;;13.33;92.23;98099.73;1609471;88;21021;-75
2022/06/22 05:57:36;;;;;;;3.58;1.65;;;;;;;13.40;92.23;98092.78;1608072;88;21512;-76
2022/06/22 06:00:14;;;;;;;1.50;1.40;;;;;;;13.41;91.73;98097.09;1610622;89;21080;-76
2022/06/22 06:06:18;;;;;;;1.82;1.30;;;;;;;13.42;91.54;98101.94;1601840;87;21063;-76
2022/06/22 06:08:55;;;;;;;1.98;1.45;;;;;;;13.38;90.92;98101.73;1632276;87;21115;-75
2022/06/22 06:11:26;;;;;;;1.27;1.17;;;;;;;13.37;91.18;98100.16;1641675;87;21078;-76
2022/06/22 06:14:00;;;;;;;1.52;1.42;;;;;;;13.39;90.92;98100.63;1627826;88;22679;-75
2022/06/22 06:16:32;;;;;;;1.70;1.40;;;;;;;13.42;91.13;98101.39;1625691;88;21055;-75
2022/06/22 06:19:02;;;;;;;1.65;1.42;;;;;;;13.41;90.71;98099.79;1627802;86;21016;-77
2022/06/22 06:21:36;;;;;;;1.52;1.15;;;;;;;13.43;91.02;98098.11;1628086;86;21072;-81
2022/06/22 06:24:23;;;;;;;1.10;1.10;;;;;;;13.47;90.98;98113.42;1605100;86;21044;-78
2022/06/22 06:30:22;;;;;;;1.40;1.30;;;;;;;13.56;89.74;98111.33;1603775;89;21057;-77
2022/06/22 06:32:54;;;;;;;2.70;1.15;;;;;;;13.62;89.12;98111.45;1616540;87;21083;-74
2022/06/22 06:35:38;;;;;;;2.00;1.25;;;;;;;13.64;88.86;98115.43;1631332;87;21145;-74
2022/06/22 06:38:39;;;;;;;2.85;1.07;;;;;;;13.68;88.69;98115.60;1632229;87;21041;-74
2022/06/22 06:41:22;;;;;;;1.12;1.02;;;;;;;13.70;88.44;98112.05;1631877;87;21265;-74
2022/06/22 06:44:03;;;;;;;1.50;1.40;;;;;;;13.77;87.84;98114.55;1631995;87;21978;-75
2022/06/22 06:46:38;;;;;;;1.40;1.30;;;;;;;13.84;88.04;98114.12;1622572;87;21539;-75
2022/06/22 06:49:32;;;;;;;0.80;0.80;;;;;;;13.91;87.11;98120.67;1595262;90;21145;-74
2022/06/22 06:52:08;;;;;;;1.27;1.22;;;;;;;13.95;87.12;98120.32;1613756;87;21096;-73
2022/06/22 06:55:15;;;;;;;1.37;1.27;;;;;;;14.02;86.78;98121.21;1614899;87;21873;-74
2022/06/22 06:57:56;;;;;;;1.25;1.17;;;;;;;14.03;86.33;98128.77;1604063;89;21368;-73
2022/06/22 07:00:23;;;;;;;1.30;1.10;;;;;;;13.99;85.60;98129.95;1594353;88;21053;-77
2022/06/22 07:02:49;;;;;;;1.00;0.98;;;;;;;13.95;85.74;98137.89;1593156;87;21119;-75
2022/06/22 07:05:19;;;;;;;5.60;1.35;;;;;;;13.95;85.70;98139.80;1631786;87;21052;-77
2022/06/22 07:07:57;;;;;;;1.47;1.20;;;;;;;13.98;86.11;98140.52;1631457;87;21083;-77
2022/06/22 07:10:37;;;;;;;2.47;1.40;;;;;;;14.05;86.37;98132.77;1591602;87;21071;-73
2022/06/22 07:13:16;;;;;;;1.45;1.32;;;;;;;14.14;86.04;98141.72;1613482;87;21029;-75
2022/06/22 07:15:46;;;;;;;1.07;1.00;;;;;;;14.20;85.94;98139.10;1631750;87;21108;-74
2022/06/22 07:18:23;;;;;;;4.75;3.45;;;;;;;14.23;85.61;98145.27;1632267;87;21060;-76
2022/06/22 07:21:07;;;;;;;2.33;1.35;;;;;;;14.14;84.86;98144.42;1611681;87;21180;-75
2022/06/22 07:23:42;;;;;;;2.75;1.62;;;;;;;14.13;85.49;98144.73;1599349;87;21123;-75
2022/06/22 07:26:29;;;;;;;2.17;1.85;;;;;;;14.16;86.04;98146.80;1631224;87;21557;-78
2022/06/22 07:29:26;;;;;;;1.77;1.67;;;;;;;14.22;86.12;98141.51;1631913;87;21040;-75
2022/06/22 07:32:24;;;;;;;2.52;1.50;;;;;;;14.28;85.90;98151.09;1624939;86;21056;-74
2022/06/22 07:35:10;;;;;;;3.15;2.22;;;;;;;14.30;85.07;98141.54;1634651;87;21178;-74
2022/06/22 07:37:55;;;;;;;2.50;1.65;;;;;;;14.35;85.47;98146.02;1612071;89;21022;-74
2022/06/22 07:40:24;;;;;;;1.95;1.37;;;;;;;14.38;85.64;98153.00;1636039;87;21605;-76
2022/06/22 07:42:51;;;;;;;3.70;1.52;;;;;;;14.38;86.05;98154.36;1631223;87;21123;-73
2022/06/22 07:45:20;;;;;;;1.57;1.47;;;;;;;14.38;86.39;98144.89;1631502;87;21032;-78
2022/06/22 07:47:57;;;;;;;2.22;1.27;;;;;;;14.40;86.28;98154.02;1597778;89;21130;-78
2022/06/22 07:50:32;;;;;;;3.92;1.50;;;;;;;14.45;85.97;98156.59;1631220;87;21008;-79
2022/06/22 07:53:23;;;;;;;1.42;1.32;;;;;;;14.55;85.65;98163.63;1639563;86;21121;-78
2022/06/22 07:56:04;;;;;;;5.12;1.20;;;;;;;14.61;85.16;98164.54;1641867;86;21090;-76
2022/06/22 07:58:40;;;;;;;1.65;1.55;;;;;;;14.67;84.29;98166.00;1632272;87;21043;-77
2022/06/22 08:01:16;;;;;;;2.87;1.80;;;;;;;14.67;83.72;98166.00;1632464;87;21267;-77
2022/06/22 08:03:50;;;;;;;1.55;1.20;;;;;;;14.74;83.84;98176.34;1631887;87;21013;-78
2022/06/22 08:06:26;;;;;;;2.15;1.40;;;;;;;14.84;83.67;98176.06;1635338;87;21033;-77
2022/06/22 08:09:00;;;;;;;2.80;1.60;;;;;;;14.93;82.90;98173.38;1615106;87;21041;-74
2022/06/22 08:11:42;;;;;;;1.72;1.45;;;;;;;15.00;82.19;98179.13;1631817;87;21075;-77
2022/06/22 08:14:32;;;;;;;2.58;1.45;;;;;;;15.06;81.86;98177.88;1631058;88;21176;-75
2022/06/22 08:17:02;;;;;;;1.60;1.50;;;;;;;15.13;81.77;98181.70;1623810;87;21482;-74
2022/06/22 08:19:30;;;;;;;2.77;1.55;;;;;;;15.20;81.40;98182.02;1567306;89;21119;-75
2022/06/22 08:22:01;;;;;;;1.82;1.72;;;;;;;15.27;81.31;98183.71;1617173;87;21024;-74
2022/06/22 08:24:29;;;;;;;1.47;1.37;;;;;;;15.26;80.85;98190.23;1625723;86;21060;-80
2022/06/22 08:26:58;;;;;;;1.75;1.65;;;;;;;15.20;79.39;98186.66;1630711;88;21747;-83
2022/06/22 08:29:25;;;;;;;3.75;1.77;;;;;;;15.20;80.48;98186.66;1630469;88;22216;-80
2022/06/22 08:32:06;;;;;;;1.37;1.35;;;;;;;15.26;80.84;98186.73;1630656;88;21041;-80
2022/06/22 08:34:41;;;;;;;3.33;1.90;;;;;;;15.25;80.25;98189.99;1630626;88;21073;-78
2022/06/22 08:37:23;;;;;;;2.10;1.57;;;;;;;15.28;80.36;98192.64;1624403;86;21339;-79
2022/06/22 08:40:00;;;;;;;3.27;1.50;;;;;;;15.37;80.58;98191.29;1605162;87;21257;-77
2022/06/22 08:42:49;;;;;;;1.40;1.30;;;;;;;15.44;80.23;98191.08;1630228;86;21005;-79
2022/06/22 08:45:55;;;;;;;1.90;1.80;;;;;;;15.47;79.87;98195.05;1605950;87;21013;-78
2022/06/22 08:48:36;;;;;;;2.40;2.15;;;;;;;15.47;79.52;98188.27;1639345;87;21532;-81
2022/06/22 08:51:43;;;;;;;2.40;1.47;;;;;;;15.60;79.69;98198.98;1618648;87;21095;-79
2022/06/22 08:54:31;;;;;;;2.17;1.98;;;;;;;15.70;77.86;98197.86;1625582;87;22956;-78
2022/06/22 08:57:12;;;;;;;1.85;1.75;;;;;;;15.82;77.92;98195.32;1619302;88;22194;-78
2022/06/22 09:00:03;;;;;;;1.72;1.60;;;;;;;15.90;76.52;98194.50;1623346;88;21098;-83
2022/06/22 09:02:52;;;;;;;1.62;1.47;;;;;;;15.91;75.19;98194.75;1612980;88;21024;-82
2022/06/22 09:05:53;;;;;;;1.80;1.65;;;;;;;15.99;75.86;98191.22;1629090;86;21064;-77
2022/06/22 09:08:26;;;;;;;2.70;2.33;;;;;;;16.13;76.37;98194.54;1632158;87;21675;-76
2022/06/22 09:11:07;;;;;;;5.50;1.80;;;;;;;16.32;76.62;98185.23;1635198;86;21136;-76
2022/06/22 09:13:48;;;;;;;2.87;1.70;;;;;;;16.44;74.40;98192.16;1630280;86;21040;-79
2022/06/22 09:16:50;;;;;;;1.98;1.50;;;;;;;16.51;73.28;98197.30;1628861;87;20992;-77
2022/06/22 09:20:00;;;;;;;1.35;1.25;;;;;;;16.61;72.30;98199.45;1630849;87;21041;-80
2022/06/22 09:23:20;;;;;;;1.87;1.77;;;;;;;16.67;71.34;98200.31;1629769;88;21342;-84
2022/06/22 09:25:56;;;;;;;1.70;1.60;;;;;;;16.65;70.20;98210.69;1604481;88;21284;-82
2022/06/22 09:28:46;;;;;;;1.60;1.50;;;;;;;16.58;70.53;98203.63;1629903;88;21604;-80
2022/06/22 09:31:58;;;;;;;2.60;2.40;;;;;;;16.56;70.58;98211.25;1630391;88;21104;-79
2022/06/22 09:35:12;;;;;;;2.20;2.10;;;;;;;16.55;70.58;98204.23;1630400;88;21107;-81
2022/06/22 09:37:50;;;;;;;1.85;1.70;;;;;;;16.47;70.48;98202.35;1604548;89;21193;-77
2022/06/22 09:40:45;;;;;;;1.62;1.50;;;;;;;16.51;70.99;98210.08;1601111;88;21128;-78
2022/06/22 09:43:44;;;;;;;2.37;1.32;;;;;;;16.62;71.03;98210.55;1630915;88;21041;-78
2022/06/22 09:46:36;;;;;;;1.20;1.20;;;;;;;16.68;69.26;98211.97;1630520;88;21045;-76
2022/06/22 09:49:29;;;;;;;1.60;1.50;;;;;;;16.80;66.96;98207.99;1629902;88;21071;-85
2022/06/22 09:52:23;;;;;;;1.80;1.52;;;;;;;16.90;66.35;98209.79;1630544;87;24974;-81
2022/06/22 09:58:42;;;;;;;1.80;1.70;;;;;;;17.02;64.62;98207.74;1629934;86;21119;-78
2022/06/22 10:01:47;;;;;;;1.40;1.30;;;;;;;16.95;63.93;98206.89;1621681;88;21075;-81
2022/06/22 10:05:00;;;;;;;1.80;1.70;;;;;;;17.04;64.25;98203.31;1629077;88;21089;-76
2022/06/22 10:07:53;;;;;;;1.60;1.50;;;;;;;17.10;63.11;98203.38;1619429;88;21383;-77
2022/06/22 10:10:35;;;;;;;2.02;1.90;;;;;;;17.14;63.24;98206.46;1626331;88;21584;-81
2022/06/22 10:13:36;;;;;;;2.87;1.92;;;;;;;17.16;62.52;98210.22;1629440;87;33665;-78
2022/06/22 10:16:14;;;;;;;1.85;1.75;;;;;;;17.15;62.79;98205.34;1629620;87;21151;-82
2022/06/22 10:18:58;;;;;;;1.57;1.47;;;;;;;17.19;61.39;98218.50;1625063;87;21120;-80
2022/06/22 10:21:42;;;;;;;4.22;1.60;;;;;;;17.23;61.50;98211.84;1630300;86;22750;-81
2022/06/22 10:24:32;;;;;;;1.72;1.62;;;;;;;17.27;62.21;98208.13;1629948;88;21099;-78
2022/06/22 10:27:16;;;;;;;2.12;1.60;;;;;;;17.34;62.44;98211.13;1629967;88;20968;-79
2022/06/22 10:30:13;;;;;;;2.05;1.60;;;;;;;17.41;62.50;98213.31;1606220;88;21044;-80
2022/06/22 10:33:11;;;;;;;1.65;1.32;;;;;;;17.46;61.69;98217.19;1641385;86;21630;-86
2022/06/22 10:35:58;;;;;;;1.20;1.20;;;;;;;17.59;60.40;98218.11;1587019;90;21128;-85
2022/06/22 10:38:48;;;;;;;1.40;1.30;;;;;;;17.78;59.30;98224.67;1623526;87;21067;-75
2022/06/22 10:48:14;;;;;;;2.23;1.60;;;;;;;18.15;56.89;98222.89;1630258;87;21077;-76
2022/06/22 10:51:15;;;;;;;3.02;2.10;;;;;;;18.17;54.17;98219.84;1623220;87;21883;-76
2022/06/22 10:54:34;;;;;;;10.13;4.00;;;;;;;18.16;54.05;98223.13;1629964;87;21076;-77
2022/06/22 10:57:19;;;;;;;4.47;2.65;;;;;;;18.16;54.21;98226.41;1563004;91;21614;-76
2022/06/22 11:00:04;;;;;;;3.60;2.35;;;;;;;18.20;52.49;98229.48;1560948;90;21105;-77
2022/06/22 11:03:02;;;;;;;3.52;2.40;;;;;;;18.26;52.87;98232.80;1603318;88;22084;-73
2022/06/22 11:06:10;;;;;;;3.47;1.95;;;;;;;18.33;53.27;98233.59;1628435;88;21564;-79
2022/06/22 11:08:54;;;;;;;4.83;2.52;;;;;;;18.40;54.09;98231.93;1630423;88;21110;-78
2022/06/22 11:11:41;;;;;;;1.70;1.60;;;;;;;18.41;53.55;98256.67;1591995;88;20965;-71
2022/06/22 11:14:46;;;;;;;1.52;1.30;;;;;;;18.19;55.25;98249.66;1604678;89;21067;-73
2022/06/22 11:17:39;;;;;;;1.65;1.17;;;;;;;17.97;56.21;98245.95;1604930;89;21205;-74
2022/06/22 11:20:33;;;;;;;1.57;1.47;;;;;;;17.83;57.33;98254.95;1620408;88;21113;-73
2022/06/22 11:23:14;;;;;;;2.33;1.95;;;;;;;17.76;57.59;98250.59;1629601;88;21505;-74
2022/06/22 11:32:46;;;;;;;2.02;1.52;;;;;;;17.77;58.34;98255.70;1609102;88;21112;-76
2022/06/22 11:35:36;;;;;;;1.02;0.90;;;;;;;17.83;58.25;98250.31;1627864;88;21055;-79
2022/06/22 11:38:26;;;;;;;1.40;1.30;;;;;;;17.95;58.23;98256.92;1630588;88;21005;-77
2022/06/22 11:41:10;;;;;;;1.37;1.27;;;;;;;18.09;59.01;98259.59;1630225;88;21084;-78
2022/06/22 11:43:43;;;;;;;2.02;1.62;;;;;;;18.23;59.31;98253.86;1619804;88;21060;-74
2022/06/22 11:46:27;;;;;;;1.50;1.40;;;;;;;18.42;59.49;98250.06;1630316;87;22235;-77
2022/06/22 11:49:32;;;;;;;1.52;1.27;;;;;;;18.64;59.19;98259.81;1630481;88;21120;-75
2022/06/22 11:52:26;;;;;;;1.42;1.20;;;;;;;18.87;57.19;98252.80;1620773;87;21349;-76
2022/06/22 11:55:21;;;;;;;1.37;1.17;;;;;;;19.10;54.65;98247.13;1630444;88;24349;-76
2022/06/22 11:58:10;;;;;;;3.80;1.42;;;;;;;19.31;54.07;98266.67;1630268;88;21078;-73
2022/06/22 12:01:14;;;;;;;0.95;0.95;;;;;;;19.44;53.73;98258.73;1630309;88;21078;-75
2022/06/22 12:04:07;;;;;;;0.78;0.78;;;;;;;19.58;53.10;98256.44;1619795;88;21263;-74
2022/06/22 12:07:14;;;;;;;1.25;1.15;;;;;;;19.71;50.44;98255.26;1629738;88;21103;-86
2022/06/22 12:10:00;;;;;;;1.07;0.98;;;;;;;19.66;50.15;98243.25;1618841;87;21099;-80
2022/06/22 12:12:46;;;;;;;5.10;1.10;;;;;;;19.66;48.00;98243.25;1596710;88;21052;-81
2022/06/22 12:15:30;;;;;;;1.35;0.90;;;;;;;19.73;46.66;98246.17;1638098;87;21007;-83
2022/06/22 12:18:28;;;;;;;2.77;1.10;;;;;;;19.78;47.60;98250.03;1636803;87;21048;-79
2022/06/22 12:21:15;;;;;;;5.50;1.15;;;;;;;19.77;47.28;98262.64;1637432;87;21038;-78
2022/06/22 12:24:14;;;;;;;2.05;1.20;;;;;;;19.76;47.87;98255.02;1637948;87;21654;-77
2022/06/22 12:27:07;;;;;;;1.77;1.22;;;;;;;19.73;48.65;98263.11;1637829;86;21028;-75
2022/06/22 12:29:48;;;;;;;1.30;1.20;;;;;;;19.66;49.61;98271.09;1637551;87;21777;-76
2022/06/22 12:32:26;;;;;;;1.02;0.93;;;;;;;19.54;48.86;98267.80;1630624;87;21323;-80
2022/06/22 12:35:32;;;;;;;1.20;1.10;;;;;;;19.46;46.56;98271.46;1636557;86;21596;-75
2022/06/22 12:38:16;;;;;;;0.90;0.90;;;;;;;19.49;45.19;98269.41;1636555;87;21039;-72
2022/06/22 12:41:16;;;;;;;1.00;1.00;;;;;;;19.51;44.34;98289.76;1636820;87;21166;-78
2022/06/22 12:44:11;;;;;;;3.40;1.05;;;;;;;19.57;46.26;98281.55;1628217;87;21147;-78
2022/06/22 12:46:55;;;;;;;1.52;0.90;;;;;;;19.67;45.88;98289.83;1638301;86;20975;-76
2022/06/22 12:50:07;;;;;;;0.70;0.70;;;;;;;19.66;45.23;98298.38;1637717;87;21012;-79
2022/06/22 12:52:41;;;;;;;2.58;0.80;;;;;;;19.53;46.29;98301.09;1633936;87;21079;-76
2022/06/22 12:55:19;;;;;;;4.70;0.98;;;;;;;19.43;48.04;98304.82;1637031;87;21087;-76
2022/06/22 12:57:56;;;;;;;1.62;1.52;;;;;;;19.38;48.32;98305.05;1636471;86;20998;-72
2022/06/22 13:00:24;;;;;;;1.25;1.10;;;;;;;19.45;48.34;98299.30;1623323;88;21971;-80
2022/06/22 13:02:53;;;;;;;1.62;1.20;;;;;;;19.63;47.62;98305.86;1625853;88;21039;-83
2022/06/22 13:05:22;;;;;;;2.10;1.22;;;;;;;19.80;47.46;98295.52;1618460;88;21149;-80
2022/06/22 13:07:57;;;;;;;2.45;1.10;;;;;;;20.00;47.24;98286.34;1604403;89;21076;-89
2022/06/22 13:10:30;;;;;;;8.25;1.15;;;;;;;20.22;45.89;98289.13;1604956;89;21554;-88